createdAt,value
2022-12-15T00:02:30.931Z,10.95
2022-12-15T00:05:16.682Z,10.77
2022-12-15T00:08:02.989Z,11.27
2022-12-15T00:10:48.690Z,10.98
2022-12-15T00:13:34.985Z,10.90
2022-12-15T00:16:24.161Z,10.82
2022-12-15T00:19:09.785Z,10.38
2022-12-15T00:21:55.728Z,10.98
2022-12-15T00:24:41.931Z,11.27
2022-12-15T00:27:27.220Z,11.38
2022-12-15T00:30:12.778Z,10.77
2022-12-15T00:32:59.333Z,10.95
2022-12-15T00:35:44.608Z,10.70
2022-12-15T00:38:32.282Z,10.10
2022-12-15T00:41:00.609Z,11.43
2022-12-15T00:43:29.386Z,10.55
2022-12-15T00:46:15.276Z,11.75
2022-12-15T00:48:44.930Z,11.40
2022-12-15T00:51:12.738Z,11.55
2022-12-15T00:53:58.193Z,10.30
2022-12-15T00:56:43.668Z,10.40
2022-12-15T00:59:29.201Z,10.68
2022-12-15T01:02:15.328Z,10.77
2022-12-15T01:05:02.203Z,11.30
2022-12-15T01:07:49.781Z,10.30
2022-12-15T01:10:36.168Z,11.57
2022-12-15T01:13:22.123Z,11.13
2022-12-15T01:16:07.932Z,10.45
2022-12-15T01:18:56.790Z,11.40
2022-12-15T01:21:26.799Z,10.95
2022-12-15T01:23:54.676Z,11.20
2022-12-15T01:26:22.461Z,11.57
2022-12-15T01:28:50.057Z,11.50
2022-12-15T01:31:17.688Z,11.10
2022-12-15T01:33:45.298Z,11.50
2022-12-15T01:36:14.292Z,11.43
2022-12-15T01:38:43.888Z,12.05
2022-12-15T01:41:12.457Z,11.37
2022-12-15T01:43:41.896Z,12.65
2022-12-15T01:46:12.066Z,10.57
2022-12-15T01:48:43.979Z,12.33
2022-12-15T01:51:22.860Z,11.77
2022-12-15T01:53:56.751Z,11.80
2022-12-15T01:56:36.835Z,11.60
2022-12-15T01:59:09.752Z,11.05
2022-12-15T02:01:37.657Z,12.52
2022-12-15T02:04:07.735Z,11.90
2022-12-15T02:06:38.002Z,12.45
2022-12-15T02:09:09.163Z,11.48
2022-12-15T02:11:50.673Z,12.60
2022-12-15T02:14:26.660Z,11.80
2022-12-15T02:17:14.756Z,12.02
2022-12-15T02:20:23.239Z,12.23
2022-12-15T02:23:09.743Z,11.63
2022-12-15T02:25:56.743Z,10.75
2022-12-15T02:28:38.320Z,12.23
2022-12-15T02:31:27.772Z,11.85
2022-12-15T02:34:01.604Z,11.73
2022-12-15T02:36:36.744Z,11.48
2022-12-15T02:39:06.261Z,11.05
2022-12-15T02:41:37.627Z,12.02
2022-12-15T02:44:12.232Z,12.57
2022-12-15T02:46:56.772Z,11.85
2022-12-15T02:49:38.204Z,12.80
2022-12-15T02:52:18.015Z,11.27
2022-12-15T02:55:05.914Z,11.82
2022-12-15T02:57:40.322Z,11.93
2022-12-15T03:00:10.981Z,11.45
2022-12-15T03:02:43.755Z,12.00
2022-12-15T03:05:16.757Z,11.15
2022-12-15T03:07:45.738Z,11.38
2022-12-15T03:10:19.757Z,11.23
2022-12-15T03:12:47.859Z,11.45
2022-12-15T03:15:15.577Z,12.20
2022-12-15T03:17:45.833Z,11.18
2022-12-15T03:20:14.739Z,12.77
2022-12-15T03:22:42.319Z,11.80
2022-12-15T03:25:10.757Z,11.65
2022-12-15T03:28:03.755Z,11.80
2022-12-15T03:30:35.832Z,11.50
2022-12-15T03:33:05.842Z,12.13
2022-12-15T03:35:34.209Z,11.85
2022-12-15T03:38:03.751Z,11.88
2022-12-15T03:40:31.395Z,11.52
2022-12-15T03:42:59.288Z,11.60
2022-12-15T03:45:29.519Z,12.23
2022-12-15T03:47:58.828Z,12.23
2022-12-15T03:50:31.338Z,11.98
2022-12-15T03:53:00.718Z,12.40
2022-12-15T03:55:29.126Z,11.13
2022-12-15T03:57:57.050Z,12.27
2022-12-15T04:00:25.879Z,12.68
2022-12-15T04:02:54.066Z,12.30
2022-12-15T04:05:25.630Z,12.18
2022-12-15T04:07:57.740Z,11.55
2022-12-15T04:10:51.744Z,12.02
2022-12-15T04:13:21.464Z,12.80
2022-12-15T04:15:49.746Z,11.93
2022-12-15T04:18:18.284Z,12.63
2022-12-15T04:20:50.191Z,12.85
2022-12-15T04:23:20.861Z,12.05
2022-12-15T04:26:09.528Z,12.43
2022-12-15T04:28:54.926Z,12.73
2022-12-15T04:31:47.374Z,13.02
2022-12-15T04:34:36.311Z,13.55
2022-12-15T04:37:21.688Z,13.45
2022-12-15T04:40:10.414Z,13.50
2022-12-15T04:43:00.438Z,12.90
2022-12-15T04:45:45.547Z,13.10
2022-12-15T04:48:31.562Z,13.63
2022-12-15T04:51:17.670Z,13.35
2022-12-15T04:54:03.737Z,13.98
2022-12-15T04:56:50.980Z,13.63
2022-12-15T04:59:36.684Z,13.25
2022-12-15T05:02:23.791Z,14.90
2022-12-15T05:05:09.729Z,13.25
2022-12-15T05:07:55.239Z,13.35
2022-12-15T05:11:05.735Z,12.48
2022-12-15T05:13:55.941Z,13.40
2022-12-15T05:16:42.771Z,13.07
2022-12-15T05:19:32.758Z,12.63
2022-12-15T05:22:20.793Z,12.35
2022-12-15T05:25:05.883Z,13.20
2022-12-15T05:27:52.465Z,13.82
2022-12-15T05:30:38.962Z,14.05
2022-12-15T05:33:06.941Z,14.98
2022-12-15T05:35:35.329Z,15.30
2022-12-15T05:38:03.136Z,13.55
2022-12-15T05:40:31.748Z,13.23
2022-12-15T05:43:00.202Z,13.40
2022-12-15T05:45:29.425Z,12.45
2022-12-15T05:47:57.752Z,14.27
2022-12-15T05:50:25.398Z,13.45
2022-12-15T05:52:53.049Z,12.88
2022-12-15T05:55:20.932Z,12.32
2022-12-15T05:57:52.562Z,12.13
2022-12-15T06:00:20.746Z,12.02
2022-12-15T06:02:50.771Z,13.00
2022-12-15T06:05:18.719Z,12.20
2022-12-15T06:07:46.387Z,13.00
2022-12-15T06:10:14.006Z,13.05
2022-12-15T06:12:43.753Z,13.50
2022-12-15T06:15:13.167Z,13.30
2022-12-15T06:17:40.829Z,14.55
2022-12-15T06:20:14.735Z,13.27
2022-12-15T06:22:49.605Z,13.65
2022-12-15T06:25:18.748Z,14.02
2022-12-15T06:27:46.836Z,13.88
2022-12-15T06:30:18.170Z,13.52
2022-12-15T06:32:49.894Z,13.38
2022-12-15T06:35:19.608Z,13.05
2022-12-15T06:37:47.271Z,13.38
2022-12-15T06:40:39.441Z,12.60
2022-12-15T06:43:07.745Z,13.40
2022-12-15T06:45:37.198Z,12.63
2022-12-15T06:48:30.750Z,12.82
2022-12-15T06:51:14.956Z,12.57
2022-12-15T06:53:48.673Z,12.98
2022-12-15T06:56:44.646Z,13.18
2022-12-15T06:59:13.547Z,13.18
2022-12-15T07:01:41.580Z,13.40
2022-12-15T07:04:12.185Z,13.18
2022-12-15T07:06:42.237Z,13.88
2022-12-15T07:09:16.744Z,13.18
2022-12-15T07:11:45.102Z,12.13
2022-12-15T07:14:13.427Z,13.23
2022-12-15T07:16:41.419Z,12.38
2022-12-15T07:19:12.681Z,12.50
2022-12-15T07:21:42.743Z,12.82
2022-12-15T07:24:12.795Z,12.60
2022-12-15T07:26:40.664Z,12.80
2022-12-15T07:29:09.452Z,13.00
2022-12-15T07:31:37.884Z,12.38
2022-12-15T07:34:05.549Z,12.18
2022-12-15T07:36:33.163Z,13.55
2022-12-15T07:39:04.767Z,12.52
2022-12-15T07:41:32.620Z,12.23
2022-12-15T07:44:00.306Z,13.13
2022-12-15T07:46:29.080Z,12.35
2022-12-15T07:48:56.851Z,13.43
2022-12-15T07:51:24.631Z,12.23
2022-12-15T07:53:54.712Z,12.82
2022-12-15T07:56:24.728Z,13.32
2022-12-15T07:58:54.069Z,12.48
2022-12-15T08:01:21.762Z,12.43
2022-12-15T08:03:50.054Z,12.73
2022-12-15T08:06:18.846Z,12.93
2022-12-15T08:08:50.802Z,14.07
2022-12-15T08:11:21.104Z,13.13
2022-12-15T08:14:12.024Z,14.10
2022-12-15T08:16:39.841Z,12.73
2022-12-15T08:19:11.594Z,13.38
2022-12-15T08:24:08.597Z,13.30
2022-12-15T08:26:38.128Z,15.32
2022-12-15T08:31:57.305Z,14.52
2022-12-15T08:34:25.072Z,14.35
2022-12-15T08:36:52.701Z,15.30
2022-12-15T08:39:20.403Z,14.68
2022-12-15T08:41:48.541Z,14.48
2022-12-15T08:44:17.701Z,15.05
2022-12-15T08:46:45.595Z,14.80
2022-12-15T08:49:17.911Z,15.10
2022-12-15T08:51:50.030Z,13.85
2022-12-15T08:54:19.741Z,15.27
2022-12-15T08:56:47.359Z,15.20
2022-12-15T08:59:15.311Z,14.60
2022-12-15T09:01:45.108Z,14.18
2022-12-15T09:04:15.843Z,16.27
2022-12-15T09:06:44.023Z,15.88
2022-12-15T09:09:16.250Z,16.20
2022-12-15T09:11:45.407Z,15.15
2022-12-15T09:14:13.239Z,16.60
2022-12-15T09:16:42.008Z,17.00
2022-12-15T09:19:11.524Z,16.73
2022-12-15T09:21:40.723Z,17.33
2022-12-15T09:24:08.664Z,17.38
2022-12-15T09:29:27.874Z,18.15
2022-12-15T09:31:55.453Z,17.08
2022-12-15T09:34:24.807Z,18.40
2022-12-15T09:36:52.526Z,18.50
2022-12-15T09:39:21.885Z,18.92
2022-12-15T09:41:54.709Z,19.05
2022-12-15T09:44:48.759Z,18.25
2022-12-15T09:47:24.833Z,18.77
2022-12-15T09:49:57.597Z,19.33
2022-12-15T09:52:28.947Z,19.45
2022-12-15T09:54:58.164Z,20.40
2022-12-15T09:57:38.294Z,20.48
2022-12-15T10:00:14.837Z,19.80
2022-12-15T10:03:18.456Z,19.23
2022-12-15T10:08:50.996Z,21.05
2022-12-15T10:11:44.691Z,19.98
2022-12-15T10:14:27.585Z,20.90
2022-12-15T10:17:06.268Z,20.13
2022-12-15T10:19:40.713Z,20.55
2022-12-15T10:22:14.963Z,19.65
2022-12-15T10:27:51.785Z,21.85
2022-12-15T10:30:23.153Z,19.95
2022-12-15T10:32:58.252Z,21.60
2022-12-15T10:35:29.539Z,20.15
2022-12-15T10:38:06.731Z,21.23
2022-12-15T10:40:50.415Z,20.73
2022-12-15T10:43:26.705Z,21.65
2022-12-15T10:46:05.989Z,20.65
2022-12-15T10:48:33.735Z,20.90
2022-12-15T10:51:21.287Z,21.02
2022-12-15T10:53:53.130Z,21.27
2022-12-15T10:56:30.649Z,21.00
2022-12-15T10:59:03.844Z,21.30
2022-12-15T11:01:33.896Z,20.88
2022-12-15T11:04:02.105Z,20.65
2022-12-15T11:06:32.267Z,19.92
2022-12-15T11:09:10.720Z,20.73
2022-12-15T11:12:11.857Z,21.05
2022-12-15T11:18:06.324Z,20.58
2022-12-15T11:20:38.380Z,21.23
2022-12-15T11:23:12.964Z,20.42
2022-12-15T11:25:46.012Z,20.52
2022-12-15T11:28:19.729Z,20.85
2022-12-15T11:30:54.842Z,20.63
2022-12-15T11:33:23.393Z,20.67
2022-12-15T11:36:07.724Z,19.45
2022-12-15T11:38:43.562Z,19.95
2022-12-15T11:41:24.037Z,19.77
2022-12-15T11:44:09.725Z,19.48
2022-12-15T11:46:49.390Z,19.52
2022-12-15T11:50:02.634Z,18.67
2022-12-15T11:53:08.641Z,19.85
2022-12-15T11:55:48.366Z,19.15
2022-12-15T11:58:53.724Z,19.10
2022-12-15T12:01:51.648Z,19.25
2022-12-15T12:04:25.897Z,19.83
2022-12-15T12:07:08.146Z,20.13
2022-12-15T12:09:37.825Z,19.83
2022-12-15T12:12:16.192Z,18.98
2022-12-15T12:14:57.131Z,20.42
2022-12-15T12:17:40.011Z,18.73
2022-12-15T12:20:16.304Z,20.65
2022-12-15T12:22:50.648Z,20.45
2022-12-15T12:25:21.723Z,20.40
2022-12-15T12:27:56.948Z,19.95
2022-12-15T12:30:28.592Z,19.83
2022-12-15T12:33:04.903Z,19.55
2022-12-15T12:35:39.689Z,19.33
2022-12-15T12:38:10.498Z,19.23
2022-12-15T12:40:49.831Z,19.05
2022-12-15T12:43:32.963Z,20.50
2022-12-15T12:46:07.921Z,19.20
2022-12-15T12:48:39.843Z,19.55
2022-12-15T12:51:24.212Z,19.33
2022-12-15T12:53:52.784Z,19.27
2022-12-15T12:56:33.275Z,19.80
2022-12-15T12:59:01.716Z,18.95
2022-12-15T13:01:34.930Z,19.80
2022-12-15T13:04:08.873Z,19.50
2022-12-15T13:07:04.617Z,19.50
2022-12-15T13:09:40.597Z,18.95
2022-12-15T13:12:53.492Z,18.85
2022-12-15T13:15:39.718Z,19.33
2022-12-15T13:18:22.552Z,19.20
2022-12-15T13:20:54.481Z,18.73
2022-12-15T13:23:42.094Z,20.05
2022-12-15T13:26:15.014Z,18.92
2022-12-15T13:28:50.628Z,18.63
2022-12-15T13:31:27.472Z,18.63
2022-12-15T13:34:04.262Z,19.13
2022-12-15T13:37:00.249Z,19.92
2022-12-15T13:39:59.858Z,19.20
2022-12-15T13:42:41.477Z,19.20
2022-12-15T13:45:48.643Z,18.83
2022-12-15T13:48:38.067Z,18.85
2022-12-15T13:51:31.245Z,19.05
2022-12-15T13:54:15.301Z,18.73
2022-12-15T13:57:04.768Z,19.45
2022-12-15T13:59:42.075Z,19.25
2022-12-15T14:02:25.702Z,21.15
2022-12-15T14:05:15.949Z,19.33
2022-12-15T14:07:54.187Z,20.10
2022-12-15T14:10:26.360Z,19.45
2022-12-15T14:15:53.453Z,19.05
2022-12-15T14:18:34.207Z,19.13
2022-12-15T14:21:07.871Z,19.27
2022-12-15T14:23:52.487Z,19.35
2022-12-15T14:26:32.199Z,19.58
2022-12-15T14:29:02.688Z,20.58
2022-12-15T14:31:31.156Z,19.98
2022-12-15T15:03:09.090Z,20.45
